createdAt,value
2023-05-14T00:01:54.399Z,100.00
2023-05-14T00:04:21.437Z,100.00
2023-05-14T00:06:48.487Z,100.00
2023-05-14T00:09:15.427Z,100.00
2023-05-14T00:11:42.580Z,100.00
2023-05-14T00:14:09.545Z,100.00
2023-05-14T00:16:36.742Z,100.00
2023-05-14T00:19:03.993Z,100.00
2023-05-14T00:21:32.034Z,100.00
2023-05-14T00:23:59.139Z,100.00
2023-05-14T00:26:26.092Z,100.00
2023-05-14T00:28:53.034Z,100.00
2023-05-14T00:31:20.007Z,100.00
2023-05-14T00:33:46.974Z,100.00
2023-05-14T00:36:13.966Z,100.00
2023-05-14T00:38:40.832Z,100.00
2023-05-14T00:41:08.264Z,100.00
2023-05-14T00:43:35.837Z,100.00
2023-05-14T00:46:02.972Z,100.00
2023-05-14T00:48:30.223Z,100.00
2023-05-14T00:50:57.703Z,100.00
2023-05-14T00:53:26.976Z,100.00
2023-05-14T00:55:54.031Z,100.00
2023-05-14T00:58:20.970Z,100.00
2023-05-14T01:00:48.484Z,100.00
2023-05-14T01:03:16.076Z,100.00
2023-05-14T01:06:18.552Z,100.00
2023-05-14T01:09:07.640Z,100.00
2023-05-14T01:12:00.010Z,100.00
2023-05-14T01:15:09.302Z,100.00
2023-05-14T01:17:41.603Z,100.00
2023-05-14T01:20:09.435Z,100.00
2023-05-14T01:22:36.919Z,100.00
2023-05-14T01:25:05.600Z,100.00
2023-05-14T01:27:36.520Z,100.00
2023-05-14T01:30:06.837Z,100.00
2023-05-14T01:32:33.799Z,100.00
2023-05-14T01:35:00.744Z,100.00
2023-05-14T01:37:28.713Z,100.00
2023-05-14T01:39:56.152Z,100.00
2023-05-14T01:42:23.355Z,100.00
2023-05-14T01:44:50.471Z,100.00
2023-05-14T01:47:17.399Z,100.00
2023-05-14T01:49:44.337Z,100.00
2023-05-14T01:52:12.197Z,100.00
2023-05-14T01:54:39.148Z,100.00
2023-05-14T01:57:06.096Z,100.00
2023-05-14T01:59:33.035Z,100.00
2023-05-14T02:01:59.923Z,100.00
2023-05-14T02:04:27.083Z,100.00
2023-05-14T02:06:54.275Z,100.00
2023-05-14T02:09:24.498Z,100.00
2023-05-14T02:11:51.445Z,100.00
2023-05-14T02:14:18.490Z,100.00
2023-05-14T02:16:45.451Z,100.00
2023-05-14T02:19:12.503Z,100.00
2023-05-14T02:21:39.523Z,100.00
2023-05-14T02:24:06.793Z,100.00
2023-05-14T02:26:33.729Z,100.00
2023-05-14T02:29:00.772Z,100.00
2023-05-14T02:31:27.868Z,100.00
2023-05-14T02:33:54.861Z,100.00
2023-05-14T02:36:21.916Z,100.00
2023-05-14T02:38:48.953Z,100.00
2023-05-14T02:41:15.834Z,100.00
2023-05-14T02:43:42.742Z,100.00
2023-05-14T02:46:09.794Z,100.00
2023-05-14T02:48:36.738Z,100.00
2023-05-14T02:51:04.038Z,100.00
2023-05-14T02:53:31.251Z,100.00
2023-05-14T02:55:58.801Z,100.00
2023-05-14T02:58:28.206Z,100.00
2023-05-14T03:00:56.206Z,100.00
2023-05-14T03:03:23.881Z,100.00
2023-05-14T03:05:52.142Z,100.00
2023-05-14T03:08:19.267Z,100.00
2023-05-14T03:10:46.202Z,100.00
2023-05-14T03:13:14.685Z,100.00
2023-05-14T03:15:42.254Z,100.00
2023-05-14T03:18:09.317Z,100.00
2023-05-14T03:20:36.328Z,100.00
2023-05-14T03:23:03.788Z,100.00
2023-05-14T03:25:30.728Z,100.00
2023-05-14T03:27:59.013Z,100.00
2023-05-14T03:30:26.407Z,100.00
2023-05-14T03:32:53.622Z,100.00
2023-05-14T03:35:20.778Z,100.00
2023-05-14T03:37:47.703Z,100.00
2023-05-14T03:40:14.654Z,100.00
2023-05-14T03:42:43.543Z,100.00
2023-05-14T03:45:10.908Z,100.00
2023-05-14T03:47:38.093Z,100.00
2023-05-14T03:50:07.285Z,100.00
2023-05-14T03:52:34.180Z,100.00
2023-05-14T03:55:02.781Z,100.00
2023-05-14T03:57:29.815Z,100.00
2023-05-14T03:59:56.782Z,100.00
2023-05-14T04:02:23.755Z,100.00
2023-05-14T04:04:50.798Z,100.00
2023-05-14T04:07:20.257Z,100.00
2023-05-14T04:09:47.299Z,100.00
2023-05-14T04:12:14.346Z,100.00
2023-05-14T04:14:41.309Z,100.00
2023-05-14T04:17:08.235Z,100.00
2023-05-14T04:19:35.187Z,100.00
2023-05-14T04:22:03.353Z,100.00
2023-05-14T04:24:30.398Z,100.00
2023-05-14T04:26:57.344Z,100.00
2023-05-14T04:29:24.292Z,100.00
2023-05-14T04:31:51.181Z,100.00
2023-05-14T04:34:18.172Z,100.00
2023-05-14T04:36:45.120Z,100.00
2023-05-14T04:39:12.780Z,100.00
2023-05-14T04:41:39.725Z,100.00
2023-05-14T04:44:07.280Z,100.00
2023-05-14T04:46:34.419Z,100.00
2023-05-14T04:49:01.578Z,100.00
2023-05-14T04:51:28.642Z,100.00
2023-05-14T04:53:55.675Z,100.00
2023-05-14T04:56:22.631Z,100.00
2023-05-14T04:58:49.558Z,100.00
2023-05-14T05:01:16.675Z,100.00
2023-05-14T05:03:43.647Z,100.00
2023-05-14T05:06:10.704Z,100.00
2023-05-14T05:08:37.958Z,100.00
2023-05-14T05:11:05.306Z,100.00
2023-05-14T05:13:32.463Z,100.00
2023-05-14T05:15:59.545Z,100.00
2023-05-14T05:18:26.628Z,100.00
2023-05-14T05:20:53.709Z,100.00
2023-05-14T05:23:20.570Z,100.00
2023-05-14T05:25:48.115Z,100.00
2023-05-14T05:28:15.154Z,100.00
2023-05-14T05:30:42.201Z,100.00
2023-05-14T05:33:09.172Z,96.44
2023-05-14T05:35:36.114Z,91.07
2023-05-14T05:38:03.445Z,86.74
2023-05-14T05:40:30.484Z,81.86
2023-05-14T05:42:57.440Z,73.61
2023-05-14T05:45:24.375Z,75.38
2023-05-14T05:47:51.584Z,74.98
2023-05-14T05:51:44.591Z,75.98
2023-05-14T05:54:11.557Z,73.04
2023-05-14T05:56:38.500Z,70.17
2023-05-14T05:59:05.538Z,71.93
2023-05-14T06:01:32.772Z,68.08
2023-05-14T06:03:59.723Z,63.34
2023-05-14T06:06:26.579Z,61.90
2023-05-14T06:08:53.604Z,60.65
2023-05-14T06:11:21.991Z,59.03
2023-05-14T06:13:49.270Z,57.86
2023-05-14T06:16:16.313Z,56.50
2023-05-14T06:18:43.326Z,55.39
2023-05-14T06:21:10.386Z,56.13
2023-05-14T06:23:37.321Z,55.80
2023-05-14T06:26:04.368Z,54.69
2023-05-14T06:28:31.314Z,55.43
2023-05-14T06:30:58.162Z,54.37
2023-05-14T06:33:31.241Z,55.00
2023-05-14T06:35:59.562Z,54.30
2023-05-14T06:38:26.976Z,52.97
2023-05-14T06:40:53.935Z,53.11
2023-05-14T06:43:21.066Z,52.03
2023-05-14T06:45:52.314Z,51.19
2023-05-14T06:48:19.839Z,50.56
2023-05-14T06:50:47.940Z,51.42
2023-05-14T06:53:15.519Z,51.93
2023-05-14T06:55:42.547Z,51.56
2023-05-14T06:58:09.721Z,51.33
2023-05-14T07:00:36.844Z,49.62
2023-05-14T07:03:04.031Z,49.47
2023-05-14T07:05:31.044Z,48.86
2023-05-14T07:07:57.984Z,49.06
2023-05-14T07:10:25.458Z,50.05
2023-05-14T07:12:52.553Z,49.54
2023-05-14T07:15:19.664Z,49.08
2023-05-14T07:17:46.720Z,49.24
2023-05-14T07:20:13.740Z,48.13
2023-05-14T07:22:40.682Z,48.21
2023-05-14T07:25:08.237Z,47.49
2023-05-14T07:27:35.189Z,47.78
2023-05-14T07:30:02.158Z,46.98
2023-05-14T07:32:29.073Z,46.68
2023-05-14T07:34:56.114Z,45.84
2023-05-14T07:37:24.154Z,46.32
2023-05-14T07:39:51.843Z,45.86
2023-05-14T07:42:31.886Z,46.65
2023-05-14T07:45:02.732Z,46.06
2023-05-14T07:47:29.792Z,45.86
2023-05-14T07:49:57.445Z,45.86
2023-05-14T07:52:24.910Z,45.14
2023-05-14T07:54:52.161Z,44.44
2023-05-14T07:57:19.960Z,44.27
2023-05-14T07:59:48.117Z,44.45
2023-05-14T08:02:17.040Z,45.12
2023-05-14T08:04:44.428Z,45.77
2023-05-14T08:07:11.377Z,45.22
2023-05-14T08:09:38.345Z,45.42
2023-05-14T08:12:06.190Z,44.72
2023-05-14T08:14:33.440Z,44.43
2023-05-14T08:17:00.496Z,44.11
2023-05-14T08:19:27.944Z,42.89
2023-05-14T08:21:54.989Z,42.67
2023-05-14T08:24:21.933Z,42.44
2023-05-14T08:26:48.857Z,43.20
2023-05-14T08:29:16.777Z,42.76
2023-05-14T08:31:44.135Z,40.55
2023-05-14T08:34:11.144Z,40.46
2023-05-14T08:36:39.055Z,40.59
2023-05-14T08:39:07.951Z,40.07
2023-05-14T08:41:35.236Z,37.80
2023-05-14T08:44:15.306Z,36.55
2023-05-14T08:46:42.251Z,35.81
2023-05-14T08:49:22.812Z,34.71
2023-05-14T08:51:50.079Z,34.18
2023-05-14T08:54:19.871Z,34.92
2023-05-14T08:56:46.912Z,34.03
2023-05-14T08:59:13.884Z,33.51
2023-05-14T09:01:44.757Z,33.59
2023-05-14T09:04:11.869Z,33.75
2023-05-14T09:06:38.952Z,32.40
2023-05-14T09:09:06.154Z,33.79
2023-05-14T09:11:33.090Z,33.11
2023-05-14T09:13:59.985Z,32.53
2023-05-14T09:16:27.079Z,33.01
2023-05-14T09:18:54.651Z,34.32
2023-05-14T09:21:21.684Z,34.00
2023-05-14T09:23:49.959Z,32.76
2023-05-14T09:26:17.965Z,33.34
2023-05-14T09:28:44.972Z,33.50
2023-05-14T09:31:12.572Z,33.39
2023-05-14T09:33:39.584Z,32.00
2023-05-14T09:36:07.445Z,30.23
2023-05-14T09:38:34.387Z,30.01
2023-05-14T09:41:01.310Z,30.51
2023-05-14T09:43:28.580Z,31.03
2023-05-14T09:45:56.142Z,30.76
2023-05-14T09:48:23.178Z,32.74
2023-05-14T09:50:51.728Z,33.09
2023-05-14T09:53:18.820Z,30.92
2023-05-14T09:55:45.764Z,30.79
2023-05-14T09:58:14.667Z,30.18
2023-05-14T10:00:45.612Z,31.13
2023-05-14T10:03:15.199Z,30.81
2023-05-14T10:05:43.069Z,30.78
2023-05-14T10:08:14.857Z,30.60
2023-05-14T10:10:41.971Z,31.36
2023-05-14T10:13:13.745Z,30.62
2023-05-14T10:15:43.784Z,29.47
2023-05-14T10:18:12.359Z,29.92
2023-05-14T10:20:41.212Z,30.43
2023-05-14T10:23:08.369Z,30.45
2023-05-14T10:25:35.717Z,29.26
2023-05-14T10:28:02.763Z,29.66
2023-05-14T10:30:29.711Z,29.91
2023-05-14T10:33:10.058Z,30.31
2023-05-14T10:36:05.992Z,29.34
2023-05-14T10:38:36.937Z,29.45
2023-05-14T10:41:18.190Z,29.64
2023-05-14T10:43:45.262Z,29.76
2023-05-14T10:46:13.929Z,29.72
2023-05-14T10:48:44.196Z,30.85
2023-05-14T10:51:12.346Z,31.32
2023-05-14T10:53:41.287Z,31.07
2023-05-14T10:56:11.969Z,29.64
2023-05-14T10:58:43.238Z,30.10
2023-05-14T11:01:12.400Z,30.21
2023-05-14T11:03:46.608Z,29.84
2023-05-14T11:06:15.733Z,28.96
2023-05-14T11:08:43.039Z,30.01
2023-05-14T11:11:10.622Z,30.20
2023-05-14T11:13:37.690Z,29.37
2023-05-14T11:16:18.988Z,30.36
2023-05-14T11:18:54.935Z,29.95
2023-05-14T11:21:22.103Z,29.79
2023-05-14T11:23:49.120Z,29.62
2023-05-14T11:26:16.336Z,30.32
2023-05-14T11:28:43.603Z,30.27
2023-05-14T11:31:10.595Z,30.01
2023-05-14T11:33:37.591Z,29.65
2023-05-14T11:36:05.364Z,29.57
2023-05-14T11:38:32.310Z,28.95
2023-05-14T11:40:59.718Z,28.74
2023-05-14T11:43:29.590Z,29.09
2023-05-14T11:45:57.909Z,28.00
2023-05-14T11:48:24.899Z,28.29
2023-05-14T11:50:53.181Z,27.01
2023-05-14T11:53:29.044Z,28.13
2023-05-14T11:55:57.948Z,27.35
2023-05-14T11:58:25.059Z,28.80
2023-05-14T12:00:52.851Z,29.17
2023-05-14T12:03:26.916Z,28.74
2023-05-14T12:05:58.899Z,27.80
2023-05-14T12:08:30.114Z,29.13
2023-05-14T12:10:58.763Z,29.32
2023-05-14T12:13:32.638Z,28.85
2023-05-14T12:16:02.532Z,27.68
2023-05-14T12:18:31.399Z,28.32
2023-05-14T12:21:03.296Z,29.08
2023-05-14T12:23:30.479Z,29.28
2023-05-14T12:26:06.819Z,29.41
2023-05-14T12:28:36.855Z,29.61
2023-05-14T12:31:05.227Z,29.02
2023-05-14T12:33:32.242Z,28.73
2023-05-14T12:36:19.738Z,29.59
2023-05-14T12:38:49.479Z,30.23
2023-05-14T12:41:18.382Z,30.65
2023-05-14T12:43:45.520Z,30.53
2023-05-14T12:46:12.876Z,31.30
2023-05-14T12:48:39.732Z,31.77
2023-05-14T12:51:07.223Z,32.04
2023-05-14T12:53:35.444Z,32.56
2023-05-14T12:56:02.568Z,32.88
2023-05-14T12:58:29.549Z,33.11
2023-05-14T13:00:56.829Z,33.32
2023-05-14T13:03:24.225Z,33.16
2023-05-14T13:05:52.674Z,32.80
2023-05-14T13:08:21.636Z,32.84
2023-05-14T13:10:48.666Z,31.61
2023-05-14T13:13:16.121Z,31.17
2023-05-14T13:15:43.166Z,32.43
2023-05-14T13:18:10.560Z,32.37
2023-05-14T13:20:37.534Z,31.33
2023-05-14T13:23:04.509Z,31.56
2023-05-14T13:25:31.453Z,32.36
2023-05-14T13:27:58.337Z,33.47
2023-05-14T13:30:25.454Z,34.02
2023-05-14T13:32:52.406Z,34.82
2023-05-14T13:35:19.534Z,35.74
2023-05-14T13:37:47.095Z,36.54
2023-05-14T13:40:13.963Z,36.84
2023-05-14T13:42:41.106Z,37.36
2023-05-14T13:45:08.757Z,37.01
2023-05-14T13:47:36.152Z,37.49
2023-05-14T13:50:03.277Z,36.99
2023-05-14T13:52:30.192Z,37.29
2023-05-14T13:54:57.134Z,37.36
2023-05-14T13:57:24.289Z,37.28
2023-05-14T13:59:51.336Z,37.74
2023-05-14T14:02:18.282Z,37.18
2023-05-14T14:04:45.457Z,36.79
2023-05-14T14:07:12.411Z,37.19
2023-05-14T14:09:39.422Z,37.23
2023-05-14T14:12:07.256Z,36.56
2023-05-14T14:14:34.330Z,36.87
2023-05-14T14:17:01.288Z,36.72
2023-05-14T14:19:28.226Z,36.64
2023-05-14T14:21:55.177Z,36.69
2023-05-14T14:24:22.038Z,37.03
2023-05-14T14:26:49.360Z,37.51
2023-05-14T14:29:16.407Z,37.69
2023-05-14T14:31:43.830Z,38.00
2023-05-14T14:34:11.117Z,38.12
2023-05-14T14:36:38.080Z,38.11
2023-05-14T14:39:05.033Z,40.79
2023-05-14T14:41:31.946Z,43.16
2023-05-14T14:43:58.891Z,41.30
2023-05-14T14:46:26.457Z,40.14
2023-05-14T14:48:53.594Z,39.09
2023-05-14T14:51:20.643Z,39.68
2023-05-14T14:53:48.010Z,40.26
2023-05-14T14:56:15.692Z,38.79
2023-05-14T14:58:42.617Z,37.99
2023-05-14T15:01:09.706Z,37.34
2023-05-14T15:03:36.786Z,36.92
2023-05-14T15:06:04.593Z,37.31
2023-05-14T15:08:31.610Z,36.72
2023-05-14T15:11:00.117Z,36.37
2023-05-14T15:13:28.476Z,36.21
2023-05-14T15:15:55.486Z,37.12
2023-05-14T15:18:22.954Z,37.82
2023-05-14T15:20:50.119Z,38.33
2023-05-14T15:23:17.181Z,38.69
2023-05-14T15:25:44.423Z,38.64
2023-05-14T15:28:11.467Z,39.06
2023-05-14T15:30:38.510Z,38.93
2023-05-14T15:33:07.779Z,38.85
2023-05-14T15:35:34.962Z,37.90
2023-05-14T15:38:01.923Z,37.44
2023-05-14T15:40:28.958Z,37.54
2023-05-14T15:42:55.876Z,38.37
2023-05-14T15:45:22.938Z,38.83
2023-05-14T15:47:50.010Z,38.86
2023-05-14T15:50:17.140Z,38.33
2023-05-14T15:52:44.024Z,38.02
2023-05-14T15:55:11.124Z,37.77
2023-05-14T15:57:38.070Z,38.68
2023-05-14T16:00:11.569Z,39.16
2023-05-14T16:02:39.144Z,40.04
2023-05-14T16:05:07.610Z,39.93
2023-05-14T16:07:34.656Z,40.23
2023-05-14T16:10:01.513Z,39.99
2023-05-14T16:12:28.647Z,40.45
2023-05-14T16:14:57.795Z,41.05
2023-05-14T16:17:24.838Z,41.20
2023-05-14T16:19:53.468Z,41.77
2023-05-14T16:22:22.353Z,42.22
2023-05-14T16:24:49.301Z,42.40
2023-05-14T16:27:18.538Z,43.91
2023-05-14T16:29:45.562Z,44.77
2023-05-14T16:32:12.739Z,45.51
2023-05-14T16:34:39.947Z,46.78
2023-05-14T16:37:06.886Z,47.28
2023-05-14T16:39:33.828Z,48.06
2023-05-14T16:42:01.184Z,48.50
2023-05-14T16:44:28.150Z,48.87
2023-05-14T16:46:55.076Z,48.76
2023-05-14T16:49:23.043Z,49.78
2023-05-14T16:51:50.000Z,51.98
2023-05-14T16:54:16.927Z,55.67
2023-05-14T16:56:48.374Z,58.62
2023-05-14T16:59:15.988Z,61.12
2023-05-14T17:01:43.739Z,67.10
2023-05-14T17:04:10.824Z,66.06
2023-05-14T17:06:37.739Z,66.30
2023-05-14T17:09:05.313Z,61.73
2023-05-14T17:11:32.558Z,60.76
2023-05-14T17:13:59.556Z,61.08
2023-05-14T17:16:27.238Z,72.33
2023-05-14T17:18:54.299Z,99.06
2023-05-14T17:21:21.606Z,100.00
2023-05-14T17:23:48.546Z,100.00
2023-05-14T17:26:15.591Z,100.00
2023-05-14T17:28:42.538Z,100.00
2023-05-14T17:31:09.532Z,100.00
2023-05-14T17:33:36.653Z,100.00
2023-05-14T17:36:04.183Z,100.00
2023-05-14T17:38:31.335Z,100.00
2023-05-14T17:40:59.545Z,100.00
2023-05-14T17:43:26.549Z,100.00
2023-05-14T17:45:54.758Z,100.00
2023-05-14T17:48:23.237Z,100.00
2023-05-14T17:50:51.752Z,100.00
2023-05-14T17:53:19.055Z,100.00
2023-05-14T17:55:46.064Z,100.00
2023-05-14T17:58:14.684Z,100.00
2023-05-14T18:00:41.903Z,100.00
2023-05-14T18:03:09.303Z,100.00
2023-05-14T18:05:36.439Z,100.00
2023-05-14T18:09:52.752Z,100.00
2023-05-14T18:12:19.703Z,100.00
2023-05-14T18:14:46.647Z,100.00
2023-05-14T18:17:13.788Z,100.00
2023-05-14T18:19:43.610Z,100.00
2023-05-14T18:22:10.609Z,100.00
2023-05-14T18:24:37.595Z,100.00
2023-05-14T18:27:04.848Z,100.00
2023-05-14T18:29:31.790Z,100.00
2023-05-14T18:31:58.730Z,100.00
2023-05-14T18:34:25.692Z,100.00
2023-05-14T18:36:52.717Z,100.00
2023-05-14T18:39:19.699Z,100.00
2023-05-14T18:41:46.557Z,100.00
2023-05-14T18:44:13.762Z,100.00
2023-05-14T18:46:40.724Z,100.00
2023-05-14T18:49:07.622Z,100.00
2023-05-14T18:51:34.602Z,100.00
2023-05-14T18:54:01.553Z,100.00
2023-05-14T18:56:28.581Z,100.00
2023-05-14T18:58:55.528Z,100.00
2023-05-14T19:01:25.385Z,100.00
2023-05-14T19:03:53.246Z,100.00
2023-05-14T19:06:21.068Z,100.00
2023-05-14T19:08:48.020Z,100.00
2023-05-14T19:11:16.493Z,100.00
2023-05-14T19:13:46.740Z,100.00
2023-05-14T19:16:13.680Z,100.00
2023-05-14T19:18:40.841Z,100.00
2023-05-14T19:21:08.186Z,100.00
2023-05-14T19:23:35.215Z,100.00
2023-05-14T19:26:04.000Z,100.00
2023-05-14T19:28:31.036Z,100.00
2023-05-14T19:30:57.937Z,100.00
2023-05-14T19:33:26.258Z,100.00
2023-05-14T19:35:53.197Z,100.00
2023-05-14T19:38:20.963Z,100.00
2023-05-14T19:40:47.919Z,100.00
2023-05-14T19:43:15.171Z,100.00
2023-05-14T19:45:42.916Z,100.00
2023-05-14T19:48:10.511Z,100.00
2023-05-14T19:50:37.837Z,100.00
2023-05-14T19:53:04.795Z,100.00
2023-05-14T19:55:31.725Z,100.00
2023-05-14T19:57:58.668Z,100.00
2023-05-14T20:00:26.880Z,100.00
2023-05-14T20:02:54.857Z,100.00
2023-05-14T20:05:22.167Z,100.00
2023-05-14T20:07:49.408Z,100.00
2023-05-14T20:10:16.463Z,100.00
2023-05-14T20:12:43.508Z,100.00
2023-05-14T20:15:11.083Z,100.00
2023-05-14T20:17:38.987Z,100.00
2023-05-14T20:20:07.115Z,100.00
2023-05-14T20:22:34.053Z,100.00
2023-05-14T20:25:00.996Z,100.00
2023-05-14T20:27:27.940Z,100.00
2023-05-14T20:29:54.882Z,100.00
2023-05-14T20:32:25.132Z,100.00
2023-05-14T20:34:52.358Z,100.00
2023-05-14T20:37:22.272Z,100.00
2023-05-14T20:39:49.261Z,100.00
2023-05-14T20:42:16.263Z,100.00
2023-05-14T20:44:43.160Z,100.00
2023-05-14T20:47:09.998Z,100.00
2023-05-14T20:49:36.991Z,100.00
2023-05-14T20:52:04.484Z,100.00
2023-05-14T20:54:31.401Z,100.00
2023-05-14T20:56:58.248Z,100.00
2023-05-14T20:59:25.179Z,100.00
2023-05-14T21:01:52.202Z,100.00
2023-05-14T21:04:19.492Z,100.00
2023-05-14T21:06:46.626Z,100.00
2023-05-14T21:09:13.570Z,100.00
2023-05-14T21:11:40.510Z,100.00
2023-05-14T21:14:07.462Z,100.00
2023-05-14T21:16:34.555Z,100.00
2023-05-14T21:19:01.603Z,100.00
2023-05-14T21:21:29.110Z,100.00
2023-05-14T21:23:56.052Z,100.00
2023-05-14T21:26:23.715Z,100.00
2023-05-14T21:28:50.665Z,100.00
2023-05-14T21:31:17.649Z,100.00
2023-05-14T21:33:44.648Z,100.00
2023-05-14T21:36:12.029Z,100.00
2023-05-14T21:38:39.048Z,100.00
2023-05-14T21:41:06.098Z,100.00
2023-05-14T21:43:34.170Z,100.00
2023-05-14T21:46:01.121Z,100.00
2023-05-14T21:48:28.527Z,100.00
2023-05-14T21:50:56.036Z,100.00
2023-05-14T21:53:23.074Z,100.00
2023-05-14T21:55:50.113Z,100.00
2023-05-14T21:58:16.998Z,100.00
2023-05-14T22:00:44.012Z,100.00
2023-05-14T22:03:11.596Z,100.00
2023-05-14T22:05:38.946Z,100.00
2023-05-14T22:08:06.272Z,100.00
2023-05-14T22:10:34.748Z,100.00
2023-05-14T22:13:01.696Z,100.00
2023-05-14T22:15:28.637Z,100.00
2023-05-14T22:17:56.103Z,100.00
2023-05-14T22:20:23.152Z,100.00
2023-05-14T22:22:50.503Z,100.00
2023-05-14T22:25:17.644Z,100.00
2023-05-14T22:27:44.584Z,100.00
2023-05-14T22:30:12.048Z,100.00
2023-05-14T22:32:39.135Z,100.00
2023-05-14T22:35:06.244Z,100.00
2023-05-14T22:37:33.185Z,100.00
2023-05-14T22:40:02.279Z,100.00
2023-05-14T22:42:29.178Z,100.00
2023-05-14T22:44:56.066Z,100.00
2023-05-14T22:47:23.037Z,100.00
2023-05-14T22:49:50.057Z,100.00
2023-05-14T22:52:18.948Z,100.00
2023-05-14T22:54:46.814Z,100.00
2023-05-14T22:57:13.756Z,100.00
2023-05-14T22:59:40.652Z,100.00
2023-05-14T23:02:07.569Z,100.00
2023-05-14T23:04:35.456Z,100.00
2023-05-14T23:07:02.463Z,100.00
2023-05-14T23:09:29.613Z,100.00
2023-05-14T23:11:56.495Z,100.00
2023-05-14T23:14:23.496Z,100.00
2023-05-14T23:16:50.454Z,100.00
2023-05-14T23:19:17.653Z,100.00
2023-05-14T23:21:44.662Z,100.00
2023-05-14T23:24:11.683Z,100.00
2023-05-14T23:26:38.825Z,100.00
2023-05-14T23:29:06.186Z,100.00
2023-05-14T23:31:33.346Z,100.00
2023-05-14T23:34:00.479Z,100.00
2023-05-14T23:36:27.428Z,100.00
2023-05-14T23:38:54.377Z,100.00
2023-05-14T23:41:21.927Z,100.00
2023-05-14T23:43:49.187Z,100.00
2023-05-14T23:46:16.358Z,100.00
2023-05-14T23:48:43.373Z,100.00
2023-05-14T23:51:10.724Z,100.00
2023-05-14T23:53:38.080Z,100.00
2023-05-14T23:56:05.229Z,100.00
2023-05-14T23:58:33.202Z,100.00
